createdAt,value
2023-01-09T00:06:43.666Z,81.70
2023-01-09T00:14:49.971Z,81.20
2023-01-09T00:22:59.072Z,80.50
2023-01-09T00:31:08.023Z,79.00
2023-01-09T00:39:15.975Z,78.60
2023-01-09T00:47:26.110Z,79.70
2023-01-09T00:55:34.322Z,80.00
2023-01-09T01:03:39.979Z,81.00
2023-01-09T01:11:48.024Z,81.20
2023-01-09T01:19:55.447Z,81.70
2023-01-09T01:28:03.400Z,81.80
2023-01-09T01:36:11.271Z,81.60
2023-01-09T01:44:46.365Z,81.80
2023-01-09T01:53:00.041Z,80.70
2023-01-09T02:01:06.108Z,80.10
2023-01-09T02:09:18.049Z,80.60
2023-01-09T02:17:46.423Z,80.90
2023-01-09T02:26:26.706Z,81.00
2023-01-09T02:34:42.408Z,81.80
2023-01-09T02:42:49.834Z,79.60
2023-01-09T02:51:05.877Z,79.50
2023-01-09T02:59:21.730Z,79.10
2023-01-09T03:07:37.846Z,78.30
2023-01-09T03:15:47.313Z,77.90
2023-01-09T03:23:59.421Z,77.80
2023-01-09T03:32:05.324Z,77.80
2023-01-09T03:40:14.359Z,76.40
2023-01-09T03:48:19.722Z,76.30
2023-01-09T03:56:27.921Z,76.10
2023-01-09T04:04:33.343Z,77.00
2023-01-09T04:12:41.364Z,77.10
2023-01-09T04:20:49.611Z,77.90
2023-01-09T04:28:57.511Z,78.40
2023-01-09T04:37:02.946Z,77.00
2023-01-09T04:45:15.554Z,76.20
2023-01-09T04:53:20.948Z,75.70
2023-01-09T05:01:29.272Z,75.60
2023-01-09T05:09:34.859Z,74.40
2023-01-09T05:17:42.893Z,74.20
2023-01-09T05:25:48.309Z,73.20
2023-01-09T05:33:58.297Z,74.40
2023-01-09T05:42:03.628Z,73.10
2023-01-09T05:50:13.360Z,73.50
2023-01-09T05:58:18.695Z,73.90
2023-01-09T06:06:29.640Z,73.70
2023-01-09T06:14:35.078Z,74.60
2023-01-09T06:22:44.919Z,74.80
2023-01-09T06:30:53.955Z,75.10
2023-01-09T06:39:01.910Z,75.10
2023-01-09T06:47:07.506Z,74.70
2023-01-09T06:55:16.865Z,76.00
2023-01-09T07:03:22.810Z,75.90
2023-01-09T07:11:31.741Z,76.40
2023-01-09T07:19:37.250Z,75.30
2023-01-09T07:27:45.271Z,74.20
2023-01-09T07:35:50.852Z,72.90
2023-01-09T07:44:00.227Z,72.60
2023-01-09T07:52:06.479Z,72.10
2023-01-09T08:00:16.256Z,71.20
2023-01-09T08:08:28.074Z,72.10
2023-01-09T08:16:36.877Z,71.40
2023-01-09T08:24:42.585Z,67.70
2023-01-09T08:32:52.403Z,64.00
2023-01-09T08:40:57.781Z,60.80
2023-01-09T08:49:13.060Z,60.40
2023-01-09T08:57:18.610Z,62.30
2023-01-09T09:05:27.976Z,58.60
2023-01-09T09:13:33.334Z,57.30
2023-01-09T09:21:44.033Z,57.50
2023-01-09T09:29:50.112Z,55.60
2023-01-09T09:38:05.213Z,52.70
2023-01-09T09:46:19.223Z,51.40
2023-01-09T09:54:35.757Z,49.70
2023-01-09T10:02:50.647Z,46.90
2023-01-09T10:10:59.195Z,46.80
2023-01-09T10:19:19.749Z,46.40
2023-01-09T10:27:37.924Z,49.90
2023-01-09T10:36:05.697Z,57.50
2023-01-09T10:44:21.373Z,59.30
2023-01-09T10:52:36.166Z,60.60
2023-01-09T11:00:45.081Z,62.20
2023-01-09T11:08:55.063Z,62.50
2023-01-09T11:17:04.900Z,62.70
2023-01-09T11:25:16.639Z,62.40
2023-01-09T11:33:27.404Z,64.20
2023-01-09T11:41:38.200Z,64.80
2023-01-09T11:49:46.638Z,63.70
2023-01-09T11:57:53.519Z,63.00
2023-01-09T12:06:06.651Z,63.60
2023-01-09T12:14:41.462Z,63.90
2023-01-09T12:22:58.141Z,64.40
2023-01-09T12:31:16.010Z,65.40
2023-01-09T12:39:35.394Z,65.10
2023-01-09T12:47:49.441Z,65.60
2023-01-09T12:56:03.102Z,66.00
2023-01-09T13:04:15.730Z,66.10
2023-01-09T13:12:27.630Z,65.60
2023-01-09T13:20:39.475Z,65.10
2023-01-09T13:28:51.248Z,66.40
2023-01-09T13:36:58.528Z,64.80
2023-01-09T13:45:15.439Z,64.00
2023-01-09T13:53:50.558Z,64.10
2023-01-09T14:01:58.673Z,63.20
2023-01-09T14:10:07.912Z,63.80
2023-01-09T14:18:26.437Z,64.60
2023-01-09T14:26:47.134Z,65.20
2023-01-09T14:34:59.084Z,64.80
2023-01-09T14:43:15.615Z,65.40
2023-01-09T14:51:25.903Z,65.00
2023-01-09T14:59:31.628Z,65.20
2023-01-09T15:07:44.662Z,65.40
2023-01-09T15:15:51.423Z,66.60
2023-01-09T15:24:13.866Z,66.00
2023-01-09T15:32:22.671Z,68.10
2023-01-09T15:40:36.444Z,67.90
2023-01-09T15:48:41.525Z,67.40
2023-01-09T15:56:49.681Z,68.10
2023-01-09T16:04:57.928Z,68.20
2023-01-09T16:13:06.705Z,68.40
2023-01-09T16:21:37.205Z,71.00
2023-01-09T16:29:50.099Z,70.90
2023-01-09T16:37:59.426Z,71.40
2023-01-09T16:46:07.702Z,71.10
2023-01-09T16:54:14.819Z,70.60
2023-01-09T17:02:24.238Z,70.70
2023-01-09T17:10:30.835Z,71.20
2023-01-09T17:18:38.879Z,70.50
2023-01-09T17:26:58.621Z,72.70
2023-01-09T17:35:07.001Z,70.40
2023-01-09T17:43:12.608Z,71.80
2023-01-09T17:51:25.522Z,71.60
2023-01-09T17:59:30.971Z,70.00
2023-01-09T18:07:39.154Z,70.70
2023-01-09T18:15:45.334Z,70.60
2023-01-09T18:23:53.318Z,70.60
2023-01-09T18:31:58.748Z,70.80
2023-01-09T18:40:08.622Z,69.70
2023-01-09T18:48:19.130Z,71.20
2023-01-09T18:56:27.645Z,71.90
2023-01-09T19:04:33.342Z,72.20
2023-01-09T19:12:45.050Z,72.20
2023-01-09T19:20:53.132Z,70.90
2023-01-09T19:29:01.224Z,70.40
2023-01-09T19:37:11.868Z,71.40
2023-01-09T19:45:22.934Z,71.10
2023-01-09T19:53:31.208Z,71.20
2023-01-09T20:01:42.811Z,71.90
2023-01-09T20:09:48.519Z,74.10
2023-01-09T20:17:58.566Z,73.90
2023-01-09T20:26:05.514Z,75.60
2023-01-09T20:34:14.985Z,74.40
2023-01-09T20:42:20.480Z,73.80
2023-01-09T20:50:29.079Z,73.40
2023-01-09T20:58:34.584Z,73.80
2023-01-09T21:06:53.498Z,75.00
2023-01-09T21:15:02.380Z,75.70
2023-01-09T21:23:10.998Z,76.90
2023-01-09T21:31:20.566Z,77.20
2023-01-09T21:39:28.996Z,77.40
2023-01-09T21:47:36.379Z,77.80
2023-01-09T21:55:48.942Z,77.00
2023-01-09T22:03:58.641Z,76.50
2023-01-09T22:12:11.475Z,75.30
2023-01-09T22:20:20.431Z,75.00
2023-01-09T22:28:28.572Z,73.50
2023-01-09T22:36:40.708Z,75.90
2023-01-09T22:45:00.308Z,74.40
2023-01-09T22:53:05.908Z,73.50
2023-01-09T23:01:15.438Z,72.80
2023-01-09T23:09:20.900Z,71.80
2023-01-09T23:17:28.876Z,70.50
2023-01-09T23:25:34.386Z,72.20
2023-01-09T23:33:43.174Z,73.10
2023-01-09T23:42:10.139Z,72.20
2023-01-09T23:50:21.408Z,72.40
2023-01-09T23:58:27.316Z,72.70
